PWSweather.com
Personal Weather Stations
Station Observations
WATERF01
WaterfordIE

WaterfordIE

Lat: 52.2412507, Lon: -7.1414691

Elevation: 65

Station Type: Davis Vantage Vue

Latest ConditionsUpdated 2:10:01 PM GMT Wednesday, Oct 1, 2014
Currently Today's Max Today's Min Today's Average
Temperature 63.1°F17.3°C 63.6°F17.6°C 52.7°F11.5°C 57.4°F14.1°C
Dew Point 50.3°F10.2°C 57.1°F13.9°C 49.4°F9.7°C 53.0°F11.7°C
Winds 4.6 mph NW7.4 kmh NW 9.2 mph NW14.8 kmh NW - 3.6 mph 5.8 kmh
Wind Gusts 8.1 mph13.0 kmh 16.6 mph26.7 kmh - -
Humidity 63% 96% 61% 86%
Pressure 30.30 in1026.1 mb 30.30 in1026.1 mb 30.11 in1019.6 mb -
Hour Temp Dew Point Humidity Winds Wind Gusts Pressure Precip Precip Rate Daily Precip Total
02:10 PM 63.1°F17.3°C 50.3°F10.2°C 63% 4.6 mph NW7.4 kmh NW 8.1 mph13.0 kmh 30.30 in1026.1 mb 0.00 in0.0 mm 0.00 in/hr0.0 mm/hr 0.00 in0.0 mm
02:00 PM 62.8°F17.1°C 50.9°F10.5°C 65% 4.6 mph 7.4 kmh 8.1 mph13.0 kmh 30.30 in1026.1 mb 0.00 in0.0 mm 0.00 in/hr0.0 mm/hr 0.00 in0.0 mm
01:50 PM 62.1°F16.7°C 50.2°F10.1°C 65% 5.8 mph NW9.3 kmh NW 8.1 mph13.0 kmh 30.30 in1026.1 mb 0.00 in0.0 mm 0.00 in/hr0.0 mm/hr 0.00 in0.0 mm
01:40 PM 62.6°F17.0°C 49.4°F9.7°C 62% 9.2 mph NNW14.8 kmh NNW 12.7 mph20.4 kmh 30.30 in1026.1 mb 0.00 in0.0 mm 0.00 in/hr0.0 mm/hr 0.00 in0.0 mm
01:30 PM 63.6°F17.6°C 49.9°F9.9°C 61% 8.1 mph NW13.0 kmh NW 15.0 mph24.1 kmh 30.29 in1025.7 mb 0.00 in0.0 mm 0.00 in/hr0.0 mm/hr 0.00 in0.0 mm
01:20 PM 63.5°F17.5°C 49.8°F9.9°C 61% 8.1 mph NW13.0 kmh NW 11.5 mph18.5 kmh 30.29 in1025.7 mb 0.00 in0.0 mm 0.00 in/hr0.0 mm/hr 0.00 in0.0 mm
01:10 PM 63.4°F17.4°C 49.7°F9.8°C 61% 6.9 mph N11.1 kmh N 11.5 mph18.5 kmh 30.29 in1025.7 mb 0.00 in0.0 mm 0.00 in/hr0.0 mm/hr 0.00 in0.0 mm
01:00 PM 63.0°F17.2°C 50.6°F10.3°C 64% 5.8 mph NW9.3 kmh NW 8.1 mph13.0 kmh 30.28 in1025.4 mb 0.00 in0.0 mm 0.00 in/hr0.0 mm/hr 0.00 in0.0 mm
12:50 PM 62.6°F17.0°C 51.1°F10.6°C 66% 6.9 mph N11.1 kmh N 11.5 mph18.5 kmh 30.28 in1025.4 mb 0.00 in0.0 mm 0.00 in/hr0.0 mm/hr 0.00 in0.0 mm
12:40 PM 62.4°F16.9°C 50.9°F10.5°C 66% 4.6 mph NW7.4 kmh NW 8.1 mph13.0 kmh 30.28 in1025.4 mb 0.00 in0.0 mm 0.00 in/hr0.0 mm/hr 0.00 in0.0 mm
12:30 PM 62.3°F16.8°C 50.8°F10.4°C 66% 9.2 mph NW14.8 kmh NW 12.7 mph20.4 kmh 30.28 in1025.4 mb 0.00 in0.0 mm 0.00 in/hr0.0 mm/hr 0.00 in0.0 mm
12:20 PM 61.9°F16.6°C 51.2°F10.7°C 68% 5.8 mph NNE9.3 kmh NNE 8.1 mph13.0 kmh 30.28 in1025.4 mb 0.00 in0.0 mm 0.00 in/hr0.0 mm/hr 0.00 in0.0 mm
12:10 PM 61.7°F16.5°C 51.4°F10.8°C 69% 6.9 mph NNW11.1 kmh NNW 11.5 mph18.5 kmh 30.27 in1025.1 mb 0.00 in0.0 mm 0.00 in/hr0.0 mm/hr 0.00 in0.0 mm
12:00 PM 61.8°F16.6°C 52.7°F11.5°C 72% 4.6 mph N7.4 kmh N 8.1 mph13.0 kmh 30.27 in1025.1 mb 0.00 in0.0 mm 0.00 in/hr0.0 mm/hr 0.00 in0.0 mm
11:50 AM 61.6°F16.4°C 52.5°F11.4°C 72% 3.5 mph NE5.6 kmh NE 6.9 mph11.1 kmh 30.27 in1025.1 mb 0.00 in0.0 mm 0.00 in/hr0.0 mm/hr 0.00 in0.0 mm
11:40 AM 61.3°F16.3°C 52.6°F11.4°C 73% 3.5 mph N5.6 kmh N 6.9 mph11.1 kmh 30.26 in1024.7 mb 0.00 in0.0 mm 0.00 in/hr0.0 mm/hr 0.00 in0.0 mm
11:30 AM 61.1°F16.2°C 52.8°F11.6°C 74% 8.1 mph NW13.0 kmh NW 11.5 mph18.5 kmh 30.26 in1024.7 mb 0.00 in0.0 mm 0.00 in/hr0.0 mm/hr 0.00 in0.0 mm
11:20 AM 60.7°F15.9°C 53.5°F11.9°C 77% 1.2 mph 1.9 kmh 4.6 mph7.4 kmh 30.26 in1024.7 mb 0.00 in0.0 mm 0.00 in/hr0.0 mm/hr 0.00 in0.0 mm
11:10 AM 60.1°F15.6°C 52.8°F11.6°C 77% 3.5 mph NNE5.6 kmh NNE 5.8 mph9.3 kmh 30.25 in1024.4 mb 0.00 in0.0 mm 0.00 in/hr0.0 mm/hr 0.00 in0.0 mm
11:00 AM 59.9°F15.5°C 53.0°F11.7°C 78% 4.6 mph NE7.4 kmh NE 6.9 mph11.1 kmh 30.25 in1024.4 mb 0.00 in0.0 mm 0.00 in/hr0.0 mm/hr 0.00 in0.0 mm
10:50 AM 60.1°F15.6°C 53.2°F11.8°C 78% 8.1 mph N13.0 kmh N 13.8 mph22.2 kmh 30.25 in1024.4 mb 0.00 in0.0 mm 0.00 in/hr0.0 mm/hr 0.00 in0.0 mm
10:40 AM 59.6°F15.3°C 53.8°F12.1°C 81% 8.1 mph NW13.0 kmh NW 11.5 mph18.5 kmh 30.25 in1024.4 mb 0.00 in0.0 mm 0.00 in/hr0.0 mm/hr 0.00 in0.0 mm
10:30 AM 58.8°F14.9°C 53.3°F11.8°C 82% 5.8 mph NW9.3 kmh NW 9.2 mph14.8 kmh 30.25 in1024.4 mb 0.00 in0.0 mm 0.00 in/hr0.0 mm/hr 0.00 in0.0 mm
10:20 AM 58.2°F14.6°C 53.0°F11.7°C 83% 5.8 mph NNW9.3 kmh NNW 9.2 mph14.8 kmh 30.24 in1024.0 mb 0.00 in0.0 mm 0.00 in/hr0.0 mm/hr 0.00 in0.0 mm
10:10 AM 57.7°F14.3°C 52.9°F11.6°C 84% 3.5 mph N5.6 kmh N 6.9 mph11.1 kmh 30.24 in1024.0 mb 0.00 in0.0 mm 0.00 in/hr0.0 mm/hr 0.00 in0.0 mm
10:00 AM 57.3°F14.1°C 52.5°F11.4°C 84% 5.8 mph NW9.3 kmh NW 8.1 mph13.0 kmh 30.23 in1023.7 mb 0.00 in0.0 mm 0.00 in/hr0.0 mm/hr 0.00 in0.0 mm
09:50 AM 57.4°F14.1°C 52.3°F11.3°C 83% 6.9 mph NNW11.1 kmh NNW 11.5 mph18.5 kmh 30.23 in1023.7 mb 0.00 in0.0 mm 0.00 in/hr0.0 mm/hr 0.00 in0.0 mm
09:40 AM 57.3°F14.1°C 52.5°F11.4°C 84% 6.9 mph NNW11.1 kmh NNW 11.5 mph18.5 kmh 30.23 in1023.7 mb 0.00 in0.0 mm 0.00 in/hr0.0 mm/hr 0.00 in0.0 mm
09:30 AM 57.1°F13.9°C 53.0°F11.7°C 86% 5.8 mph NW9.3 kmh NW 8.1 mph13.0 kmh 30.23 in1023.7 mb 0.00 in0.0 mm 0.00 in/hr0.0 mm/hr 0.00 in0.0 mm
09:20 AM 57.4°F14.1°C 53.9°F12.2°C 88% 3.5 mph N5.6 kmh N 8.1 mph13.0 kmh 30.22 in1023.4 mb 0.00 in0.0 mm 0.00 in/hr0.0 mm/hr 0.00 in0.0 mm
09:00 AM 57.2°F14.0°C 54.0°F12.2°C 89% 4.0 mph 6.4 kmh 5.5 mph8.9 kmh 30.21 in1023.0 mb 0.00 in0.0 mm 0.00 in/hr0.0 mm/hr 0.00 in0.0 mm
08:50 AM 57.1°F13.9°C 53.6°F12.0°C 88% 2.9 mph 4.7 kmh 4.1 mph6.6 kmh 30.20 in1022.7 mb 0.00 in0.0 mm 0.00 in/hr0.0 mm/hr 0.00 in0.0 mm
08:40 AM 56.7°F13.7°C 53.5°F11.9°C 89% 4.3 mph NE6.9 kmh NE 8.3 mph13.4 kmh 30.20 in1022.7 mb 0.00 in0.0 mm 0.00 in/hr0.0 mm/hr 0.00 in0.0 mm
08:30 AM 56.2°F13.4°C 53.3°F11.8°C 90% 7.8 mph NW12.6 kmh NW 11.7 mph18.8 kmh 30.20 in1022.7 mb 0.00 in0.0 mm 0.00 in/hr0.0 mm/hr 0.00 in0.0 mm
08:20 AM 55.9°F13.3°C 53.0°F11.7°C 90% 7.0 mph 11.3 kmh 11.0 mph17.7 kmh 30.19 in1022.4 mb 0.00 in0.0 mm 0.00 in/hr0.0 mm/hr 0.00 in0.0 mm
08:10 AM 55.9°F13.3°C 53.0°F11.7°C 90% 6.6 mph NW10.6 kmh NW 9.7 mph15.6 kmh 30.19 in1022.4 mb 0.00 in0.0 mm 0.00 in/hr0.0 mm/hr 0.00 in0.0 mm
08:00 AM 56.1°F13.4°C 53.2°F11.8°C 90% 6.3 mph 10.1 kmh 9.7 mph15.6 kmh 30.19 in1022.4 mb 0.00 in0.0 mm 0.00 in/hr0.0 mm/hr 0.00 in0.0 mm
07:50 AM 56.4°F13.6°C 53.2°F11.8°C 89% 7.3 mph NW11.7 kmh NW 13.8 mph22.2 kmh 30.18 in1022.0 mb 0.00 in0.0 mm 0.00 in/hr0.0 mm/hr 0.00 in0.0 mm
07:40 AM 57.3°F14.1°C 54.1°F12.3°C 89% 9.2 mph NW14.8 kmh NW 16.6 mph26.7 kmh 30.17 in1021.7 mb 0.00 in0.0 mm 0.00 in/hr0.0 mm/hr 0.00 in0.0 mm
07:30 AM 58.6°F14.8°C 56.6°F13.7°C 93% 8.4 mph NW13.5 kmh NW 13.8 mph22.2 kmh 30.17 in1021.7 mb 0.00 in0.0 mm 0.00 in/hr0.0 mm/hr 0.00 in0.0 mm
07:20 AM 58.7°F14.8°C 57.0°F13.9°C 94% 2.1 mph NW3.4 kmh NW 4.1 mph6.6 kmh 30.16 in1021.3 mb 0.00 in0.0 mm 0.00 in/hr0.0 mm/hr 0.00 in0.0 mm
07:10 AM 58.5°F14.7°C 57.1°F13.9°C 95% 2.3 mph NW3.7 kmh NW 4.1 mph6.6 kmh 30.15 in1021.0 mb 0.00 in0.0 mm 0.00 in/hr0.0 mm/hr 0.00 in0.0 mm
07:00 AM 58.2°F14.6°C 56.8°F13.8°C 95% 4.0 mph SW6.4 kmh SW 6.9 mph11.1 kmh 30.14 in1020.7 mb 0.00 in0.0 mm 0.00 in/hr0.0 mm/hr 0.00 in0.0 mm
06:50 AM 57.7°F14.3°C 56.3°F13.5°C 95% 4.6 mph SW7.4 kmh SW 8.3 mph13.4 kmh 30.14 in1020.7 mb 0.00 in0.0 mm 0.00 in/hr0.0 mm/hr 0.00 in0.0 mm
06:40 AM 57.6°F14.2°C 56.2°F13.4°C 95% 0.7 mph SW1.1 kmh SW 1.4 mph2.3 kmh 30.14 in1020.7 mb 0.00 in0.0 mm 0.00 in/hr0.0 mm/hr 0.00 in0.0 mm
06:30 AM 57.7°F14.3°C 56.6°F13.7°C 96% 0.6 mph SE1.0 kmh SE 2.8 mph4.5 kmh 30.13 in1020.3 mb 0.00 in0.0 mm 0.00 in/hr0.0 mm/hr 0.00 in0.0 mm
06:20 AM 57.4°F14.1°C 56.2°F13.4°C 96% 1.8 mph NW2.9 kmh NW 4.1 mph6.6 kmh 30.13 in1020.3 mb 0.00 in0.0 mm 0.00 in/hr0.0 mm/hr 0.00 in0.0 mm
06:10 AM 57.0°F13.9°C 55.6°F13.1°C 95% 1.2 mph 1.9 kmh 2.8 mph4.5 kmh 30.13 in1020.3 mb 0.00 in0.0 mm 0.00 in/hr0.0 mm/hr 0.00 in0.0 mm
06:00 AM 56.8°F13.8°C 55.6°F13.1°C 96% 0.2 mph 0.3 kmh 2.8 mph4.5 kmh 30.13 in1020.3 mb 0.00 in0.0 mm 0.00 in/hr0.0 mm/hr 0.00 in0.0 mm
05:50 AM 56.2°F13.4°C 54.8°F12.7°C 95% 1.0 mph SW1.6 kmh SW 2.8 mph4.5 kmh 30.13 in1020.3 mb 0.00 in0.0 mm 0.00 in/hr0.0 mm/hr 0.00 in0.0 mm
05:40 AM 55.9°F13.3°C 54.4°F12.4°C 95% Calm Calm -- 30.12 in1020.0 mb 0.00 in0.0 mm 0.00 in/hr0.0 mm/hr 0.00 in0.0 mm
05:30 AM 55.7°F13.2°C 54.3°F12.4°C 95% 0.3 mph SE0.5 kmh SE 2.8 mph4.5 kmh 30.12 in1020.0 mb 0.00 in0.0 mm 0.00 in/hr0.0 mm/hr 0.00 in0.0 mm
05:20 AM 55.3°F12.9°C 53.9°F12.2°C 95% 1.5 mph SE2.4 kmh SE 2.8 mph4.5 kmh 30.12 in1020.0 mb 0.00 in0.0 mm 0.00 in/hr0.0 mm/hr 0.00 in0.0 mm
05:10 AM 55.6°F13.1°C 54.2°F12.3°C 95% 1.0 mph S1.6 kmh S 2.8 mph4.5 kmh 30.12 in1020.0 mb 0.00 in0.0 mm 0.00 in/hr0.0 mm/hr 0.00 in0.0 mm
05:00 AM 55.5°F13.1°C 53.8°F12.1°C 94% Calm Calm 2.8 mph4.5 kmh 30.11 in1019.6 mb 0.00 in0.0 mm 0.00 in/hr0.0 mm/hr 0.00 in0.0 mm
04:50 AM 55.9°F13.3°C 54.2°F12.3°C 94% 2.0 mph SE3.2 kmh SE 2.8 mph4.5 kmh 30.12 in1020.0 mb 0.00 in0.0 mm 0.00 in/hr0.0 mm/hr 0.00 in0.0 mm
04:40 AM 56.3°F13.5°C 54.9°F12.7°C 95% 2.1 mph SW3.4 kmh SW 4.1 mph6.6 kmh 30.12 in1020.0 mb 0.00 in0.0 mm 0.00 in/hr0.0 mm/hr 0.00 in0.0 mm
04:30 AM 55.5°F13.1°C 53.8°F12.1°C 94% 4.9 mph S7.9 kmh S 6.8 mph10.9 kmh 30.11 in1019.6 mb 0.00 in0.0 mm 0.00 in/hr0.0 mm/hr 0.00 in0.0 mm
04:20 AM 55.3°F12.9°C 53.6°F12.0°C 94% 0.5 mph NW0.8 kmh NW 2.8 mph4.5 kmh 30.11 in1019.6 mb 0.00 in0.0 mm 0.00 in/hr0.0 mm/hr 0.00 in0.0 mm
04:10 AM 55.3°F12.9°C 53.3°F11.8°C 93% Calm Calm -- 30.11 in1019.6 mb 0.00 in0.0 mm 0.00 in/hr0.0 mm/hr 0.00 in0.0 mm
04:00 AM 55.4°F13.0°C 53.4°F11.9°C 93% Calm Calm 1.4 mph2.3 kmh 30.11 in1019.6 mb 0.00 in0.0 mm 0.00 in/hr0.0 mm/hr 0.00 in0.0 mm
03:50 AM 55.5°F13.1°C 53.5°F11.9°C 93% 0.4 mph SW0.6 kmh SW 1.4 mph2.3 kmh 30.11 in1019.6 mb 0.00 in0.0 mm 0.00 in/hr0.0 mm/hr 0.00 in0.0 mm
03:40 AM 55.5°F13.1°C 53.5°F11.9°C 93% 2.1 mph SW3.4 kmh SW 2.8 mph4.5 kmh 30.11 in1019.6 mb 0.00 in0.0 mm 0.00 in/hr0.0 mm/hr 0.00 in0.0 mm
03:30 AM 55.4°F13.0°C 53.4°F11.9°C 93% 0.4 mph S0.6 kmh S 2.8 mph4.5 kmh 30.11 in1019.6 mb 0.00 in0.0 mm 0.00 in/hr0.0 mm/hr 0.00 in0.0 mm
03:20 AM 55.3°F12.9°C 53.3°F11.8°C 93% 0.1 mph SW0.2 kmh SW 2.8 mph4.5 kmh 30.11 in1019.6 mb 0.00 in0.0 mm 0.00 in/hr0.0 mm/hr 0.00 in0.0 mm
03:10 AM 55.1°F12.8°C 52.8°F11.6°C 92% 0.5 mph SW0.8 kmh SW 2.8 mph4.5 kmh 30.12 in1020.0 mb 0.00 in0.0 mm 0.00 in/hr0.0 mm/hr 0.00 in0.0 mm
03:00 AM 55.3°F12.9°C 53.3°F11.8°C 93% 1.2 mph S1.9 kmh S 2.8 mph4.5 kmh 30.11 in1019.6 mb 0.00 in0.0 mm 0.00 in/hr0.0 mm/hr 0.00 in0.0 mm
02:50 AM 55.2°F12.9°C 53.2°F11.8°C 93% 0.8 mph SW1.3 kmh SW 2.8 mph4.5 kmh 30.12 in1020.0 mb 0.00 in0.0 mm 0.00 in/hr0.0 mm/hr 0.00 in0.0 mm
02:40 AM 54.9°F12.7°C 52.9°F11.6°C 93% 0.7 mph SW1.1 kmh SW 2.8 mph4.5 kmh 30.12 in1020.0 mb 0.00 in0.0 mm 0.00 in/hr0.0 mm/hr 0.00 in0.0 mm
02:30 AM 54.9°F12.7°C 52.6°F11.4°C 92% 0.8 mph S1.3 kmh S 1.4 mph2.3 kmh 30.12 in1020.0 mb 0.00 in0.0 mm 0.00 in/hr0.0 mm/hr 0.00 in0.0 mm
02:20 AM 54.8°F12.7°C 52.6°F11.4°C 92% 2.7 mph SW4.3 kmh SW 5.5 mph8.9 kmh 30.12 in1020.0 mb 0.00 in0.0 mm 0.00 in/hr0.0 mm/hr 0.00 in0.0 mm
02:10 AM 54.9°F12.7°C 52.9°F11.6°C 93% 2.0 mph SW3.2 kmh SW 5.4 mph8.7 kmh 30.12 in1020.0 mb 0.00 in0.0 mm 0.00 in/hr0.0 mm/hr 0.00 in0.0 mm
02:00 AM 54.6°F12.6°C 52.6°F11.4°C 93% 3.7 mph NW6.0 kmh NW 5.5 mph8.9 kmh 30.12 in1020.0 mb 0.00 in0.0 mm 0.00 in/hr0.0 mm/hr 0.00 in0.0 mm
01:50 AM 54.2°F12.3°C 52.2°F11.2°C 93% 2.6 mph SW4.2 kmh SW 5.5 mph8.9 kmh 30.12 in1020.0 mb 0.00 in0.0 mm 0.00 in/hr0.0 mm/hr 0.00 in0.0 mm
01:40 AM 54.1°F12.3°C 52.1°F11.2°C 93% 0.1 mph SW0.2 kmh SW 1.4 mph2.3 kmh 30.12 in1020.0 mb 0.00 in0.0 mm 0.00 in/hr0.0 mm/hr 0.00 in0.0 mm
01:30 AM 54.0°F12.2°C 52.0°F11.1°C 93% 2.3 mph S3.7 kmh S 4.1 mph6.6 kmh 30.12 in1020.0 mb 0.00 in0.0 mm 0.00 in/hr0.0 mm/hr 0.00 in0.0 mm
01:20 AM 54.0°F12.2°C 52.0°F11.1°C 93% 2.4 mph SW3.9 kmh SW 4.1 mph6.6 kmh 30.11 in1019.6 mb 0.00 in0.0 mm 0.00 in/hr0.0 mm/hr 0.00 in0.0 mm
01:10 AM 54.0°F12.2°C 52.3°F11.3°C 94% 2.3 mph SW3.7 kmh SW 4.1 mph6.6 kmh 30.11 in1019.6 mb 0.00 in0.0 mm 0.00 in/hr0.0 mm/hr 0.00 in0.0 mm
01:00 AM 53.5°F11.9°C 51.8°F11.0°C 94% 2.3 mph SW3.7 kmh SW 4.1 mph6.6 kmh 30.11 in1019.6 mb 0.00 in0.0 mm 0.00 in/hr0.0 mm/hr 0.00 in0.0 mm
12:50 AM 52.7°F11.5°C 50.8°F10.4°C 93% Calm Calm -- 30.11 in1019.6 mb 0.00 in0.0 mm 0.00 in/hr0.0 mm/hr 0.00 in0.0 mm
12:40 AM 52.8°F11.6°C 50.5°F10.3°C 92% Calm Calm -- 30.11 in1019.6 mb 0.00 in0.0 mm 0.00 in/hr0.0 mm/hr 0.00 in0.0 mm
12:30 AM 53.2°F11.8°C 50.9°F10.5°C 92% 0.6 mph SW1.0 kmh SW 2.8 mph4.5 kmh 30.11 in1019.6 mb 0.00 in0.0 mm 0.00 in/hr0.0 mm/hr 0.00 in0.0 mm
12:20 AM 53.4°F11.9°C 51.1°F10.6°C 92% 2.2 mph SW3.5 kmh SW 4.1 mph6.6 kmh 30.11 in1019.6 mb 0.00 in0.0 mm 0.00 in/hr0.0 mm/hr 0.00 in0.0 mm
12:10 AM 53.6°F12.0°C 51.0°F10.6°C 91% 3.6 mph SW5.8 kmh SW 5.5 mph8.9 kmh 30.11 in1019.6 mb 0.00 in0.0 mm 0.00 in/hr0.0 mm/hr 0.00 in0.0 mm
12:00 AM 53.7°F12.1°C 51.1°F10.6°C 91% 2.7 mph SW4.3 kmh SW 6.9 mph11.1 kmh 30.11 in1019.6 mb 0.00 in0.0 mm 0.00 in/hr0.0 mm/hr 0.00 in0.0 mm